Terminal Aerodrome Forecast
Issued by NWS Charleston, WV

Home | Current Version | Previous Version | Text Only | Print | Product List | Glossary On
Versions: 1 2 3 4 5 6 7 8 9 10 11 12 13 14 15 16 17 18 19 20 21 22 23 24 25
132
FTUS41 KRLX 191927 AAA
TAFHTS
TAF AMD
KHTS 191927Z 1919/2018 25010KT P6SM OVC045
     FM200100 28007KT P6SM SCT040
     FM200400 27006KT P6SM SKC
     FM201600 22005KT P6SM FEW250=

USA.gov is the U.S. government's official web portal to all federal, state and local government web resources and services.